Time;durP1;ratioP1;P1;durP2;ratioP2;P2;SDS_P1;SDS_P2;PMS_P1;PMS_P2;Temp;Humidity;BMP_temperature;BMP_pressure;BME280_temperature;BME280_humidity;BME280_pressure;Samples;Min_cycle;Max_cycle;Signal;HPM_P1;HPM_P2
2023/10/06 00:01:49;;;;;;;6.18;4.10;;;7.90;99.90;;;;;;5015228;28;20214;-64
2023/10/06 00:04:17;;;;;;;7.00;4.95;;;7.90;99.90;;;;;;5015112;28;20218;-63
2023/10/06 00:06:48;;;;;;;7.97;5.18;;;7.90;99.90;;;;;;5015262;28;20199;-63
2023/10/06 00:09:23;;;;;;;5.40;4.57;;;7.90;99.90;;;;;;5014901;28;20219;-63
2023/10/06 00:11:51;;;;;;;5.85;4.25;;;7.90;99.90;;;;;;5015152;28;20640;-63
2023/10/06 00:14:38;;;;;;;6.40;4.43;;;7.80;99.90;;;;;;5015104;28;20215;-63
2023/10/06 00:17:08;;;;;;;5.85;3.75;;;7.80;99.90;;;;;;5015112;28;20596;-63
2023/10/06 00:19:37;;;;;;;8.23;4.43;;;7.80;99.90;;;;;;5015159;28;20296;-63
2023/10/06 00:22:17;;;;;;;5.60;4.22;;;7.80;99.90;;;;;;5015148;28;20235;-63
2023/10/06 00:24:46;;;;;;;5.43;4.93;;;7.70;99.90;;;;;;5014820;28;20203;-63
2023/10/06 00:27:13;;;;;;;4.95;4.00;;;7.70;99.90;;;;;;5015015;28;20203;-63
2023/10/06 00:29:43;;;;;;;4.57;4.18;;;7.70;99.90;;;;;;5014726;28;20309;-63
2023/10/06 00:32:23;;;;;;;7.03;4.93;;;7.70;99.90;;;;;;5014949;28;20270;-64
2023/10/06 00:34:50;;;;;;;13.48;4.82;;;7.60;99.90;;;;;;5014819;28;20639;-63
2023/10/06 00:37:22;;;;;;;7.63;6.10;;;7.60;99.90;;;;;;5014619;28;20226;-63
2023/10/06 00:39:50;;;;;;;9.00;5.65;;;7.60;99.90;;;;;;5014725;28;20233;-63
2023/10/06 00:42:19;;;;;;;6.30;5.80;;;7.60;99.90;;;;;;5014491;28;20632;-63
2023/10/06 00:44:47;;;;;;;5.85;5.28;;;7.60;99.90;;;;;;5014313;28;20220;-63
2023/10/06 00:47:15;;;;;;;5.00;4.55;;;7.50;99.90;;;;;;5014490;28;20749;-63
2023/10/06 00:49:43;;;;;;;6.95;6.28;;;7.50;99.90;;;;;;5014714;28;20565;-64
2023/10/06 00:52:12;;;;;;;5.85;5.32;;;7.50;99.90;;;;;;5014231;28;20273;-63
2023/10/06 00:54:43;;;;;;;8.23;5.20;;;7.50;99.90;;;;;;5014155;28;20213;-63
2023/10/06 00:57:12;;;;;;;7.43;5.57;;;7.50;99.90;;;;;;5014745;28;20239;-63
2023/10/06 00:59:41;;;;;;;6.72;6.03;;;7.40;99.90;;;;;;5014656;28;20210;-63
2023/10/06 01:02:11;;;;;;;9.43;6.80;;;7.40;99.90;;;;;;5013765;28;20326;-63
2023/10/06 01:04:44;;;;;;;7.60;6.00;;;7.40;99.90;;;;;;5013859;28;20227;-63
2023/10/06 01:07:13;;;;;;;10.13;7.32;;;7.40;99.90;;;;;;5014069;28;20205;-63
2023/10/06 01:09:56;;;;;;;6.88;6.15;;;7.40;99.90;;;;;;5014346;28;20211;-63
2023/10/06 01:12:23;;;;;;;8.48;4.80;;;7.40;99.90;;;;;;5014129;28;20231;-63
2023/10/06 01:14:51;;;;;;;7.03;6.30;;;7.40;99.90;;;;;;5013710;28;20210;-63
2023/10/06 01:17:19;;;;;;;7.55;6.22;;;7.30;99.90;;;;;;5013941;28;20234;-63
2023/10/06 01:19:49;;;;;;;5.28;4.80;;;7.30;99.90;;;;;;5013759;28;20202;-63
2023/10/06 01:22:24;;;;;;;6.18;5.65;;;7.30;99.90;;;;;;5014107;28;20339;-63
2023/10/06 01:24:53;;;;;;;6.30;4.30;;;7.30;99.90;;;;;;5013449;28;20205;-63
2023/10/06 01:27:21;;;;;;;5.95;5.25;;;7.20;99.90;;;;;;5014248;28;20226;-63
2023/10/06 01:30:17;;;;;;;6.93;5.63;;;7.20;99.90;;;;;;5013659;28;20291;-63
2023/10/06 01:32:35;;;;;;;5.90;5.20;;;7.20;99.90;;;;;;5013415;28;20223;-63
2023/10/06 01:35:02;;;;;;;6.03;5.43;;;7.20;99.90;;;;;;5013401;28;20210;-63
2023/10/06 01:37:31;;;;;;;8.48;5.85;;;7.10;99.90;;;;;;5013594;28;20224;-63
2023/10/06 01:40:07;;;;;;;5.65;5.13;;;7.20;99.90;;;;;;5013981;28;20207;-63
2023/10/06 01:42:35;;;;;;;5.30;4.90;;;7.20;99.90;;;;;;5013457;28;20229;-63
2023/10/06 01:45:13;;;;;;;6.38;5.80;;;7.10;99.90;;;;;;5013235;28;20207;-63
2023/10/06 01:47:40;;;;;;;6.78;6.05;;;7.10;99.90;;;;;;5013654;28;20206;-63
2023/10/06 01:50:08;;;;;;;6.75;5.60;;;7.10;99.90;;;;;;5013396;28;20253;-64
2023/10/06 01:52:39;;;;;;;6.55;5.68;;;7.10;99.90;;;;;;5013330;28;20263;-63
2023/10/06 01:55:21;;;;;;;5.75;5.25;;;7.10;99.90;;;;;;5013000;28;20225;-63
2023/10/06 01:57:49;;;;;;;6.68;5.60;;;7.10;99.90;;;;;;5013258;28;20728;-63
2023/10/06 02:00:25;;;;;;;6.50;5.90;;;7.10;99.90;;;;;;5013126;28;20205;-63
2023/10/06 02:02:52;;;;;;;8.07;6.07;;;7.10;99.90;;;;;;5013093;28;20235;-63
2023/10/06 02:05:20;;;;;;;6.22;5.63;;;7.10;99.90;;;;;;5012949;28;20207;-63
2023/10/06 02:07:48;;;;;;;7.93;5.85;;;7.10;99.90;;;;;;5013030;28;20211;-63
2023/10/06 02:10:18;;;;;;;7.13;6.40;;;7.10;99.90;;;;;;5011199;28;20300;-63
2023/10/06 02:12:46;;;;;;;6.22;5.10;;;7.10;99.90;;;;;;5011170;28;20232;-63
2023/10/06 02:15:13;;;;;;;7.30;5.20;;;7.00;99.90;;;;;;5000045;28;20203;-63
2023/10/06 02:17:41;;;;;;;5.38;4.63;;;7.00;99.90;;;;;;4992443;28;20226;-63
2023/10/06 02:20:13;;;;;;;7.05;5.47;;;7.00;99.90;;;;;;4992531;28;20208;-63
2023/10/06 02:22:40;;;;;;;6.68;6.05;;;7.00;99.90;;;;;;4993534;28;20232;-63
2023/10/06 02:25:13;;;;;;;8.75;5.85;;;7.00;99.90;;;;;;4992996;28;20226;-63
2023/10/06 02:27:46;;;;;;;6.10;5.50;;;7.00;99.90;;;;;;4993511;28;20239;-63
2023/10/06 02:30:15;;;;;;;7.07;6.38;;;7.00;99.90;;;;;;4993164;28;20213;-63
2023/10/06 02:32:42;;;;;;;6.15;5.65;;;7.00;99.90;;;;;;4992941;28;20228;-63
2023/10/06 02:35:10;;;;;;;7.97;6.30;;;7.00;99.90;;;;;;4993275;28;20615;-63
2023/10/06 02:37:36;;;;;;;6.95;6.13;;;7.00;99.90;;;;;;4992965;28;20227;-63
2023/10/06 02:40:11;;;;;;;8.57;7.70;;;7.00;99.90;;;;;;4993222;28;20207;-63
2023/10/06 02:42:45;;;;;;;10.30;7.55;;;7.00;99.90;;;;;;4992715;28;20228;-63
2023/10/06 02:45:19;;;;;;;7.95;7.25;;;7.00;99.90;;;;;;4992656;28;20210;-63
2023/10/06 02:47:47;;;;;;;12.82;7.35;;;7.10;99.90;;;;;;4992948;28;20207;-63
2023/10/06 02:50:19;;;;;;;12.52;7.20;;;7.00;99.90;;;;;;4992894;28;20207;-63
2023/10/06 02:52:46;;;;;;;12.88;8.32;;;7.00;99.90;;;;;;4992822;28;20315;-63
2023/10/06 02:55:13;;;;;;;12.55;7.75;;;7.00;99.90;;;;;;4992329;28;20207;-63
2023/10/06 02:57:50;;;;;;;9.50;8.60;;;7.00;99.90;;;;;;4992508;28;20227;-63
2023/10/06 03:00:32;;;;;;;10.18;6.88;;;7.10;99.90;;;;;;4992897;28;20549;-63
2023/10/06 03:03:11;;;;;;;6.20;4.32;;;7.00;99.90;;;;;;4992297;28;20619;-63
2023/10/06 03:05:40;;;;;;;3.42;3.13;;;7.00;99.90;;;;;;4992425;28;20223;-63
2023/10/06 03:08:08;;;;;;;5.72;4.18;;;6.90;99.90;;;;;;4992292;28;20303;-63
2023/10/06 03:10:42;;;;;;;7.13;3.80;;;6.80;99.90;;;;;;4992619;28;20238;-63
2023/10/06 03:13:13;;;;;;;4.63;4.13;;;6.80;99.90;;;;;;4992331;28;20610;-63
2023/10/06 03:15:45;;;;;;;12.05;5.95;;;6.80;99.90;;;;;;4992286;28;20211;-63
2023/10/06 03:18:13;;;;;;;8.77;6.60;;;6.80;99.90;;;;;;4992321;28;20234;-63
2023/10/06 03:20:46;;;;;;;9.40;5.72;;;6.70;99.90;;;;;;4992139;28;20597;-63
2023/10/06 03:23:24;;;;;;;7.80;7.00;;;6.70;99.90;;;;;;4992260;28;20231;-63
2023/10/06 03:25:54;;;;;;;12.95;7.00;;;6.70;99.90;;;;;;4992637;28;20278;-63
2023/10/06 03:28:25;;;;;;;7.55;6.45;;;6.70;99.90;;;;;;4992197;28;20204;-63
2023/10/06 03:30:52;;;;;;;7.90;5.75;;;6.70;99.90;;;;;;4992409;28;20204;-63
2023/10/06 03:33:20;;;;;;;7.22;5.25;;;6.70;99.90;;;;;;4991767;28;20643;-63
2023/10/06 03:35:48;;;;;;;7.15;5.53;;;6.70;99.90;;;;;;4992011;28;20211;-63
2023/10/06 03:38:36;;;;;;;6.00;4.82;;;6.70;99.90;;;;;;4992199;28;20251;-63
2023/10/06 03:41:24;;;;;;;7.25;4.88;;;6.70;99.90;;;;;;4992184;28;20212;-63
2023/10/06 03:43:54;;;;;;;6.05;5.00;;;6.70;99.90;;;;;;4992069;28;20231;-63
2023/10/06 03:46:24;;;;;;;4.85;4.40;;;6.70;99.90;;;;;;4992204;28;20270;-63
2023/10/06 03:48:51;;;;;;;5.32;4.85;;;6.70;99.90;;;;;;4991872;28;20204;-64
2023/10/06 03:51:18;;;;;;;5.15;4.75;;;6.70;99.90;;;;;;4992058;28;20297;-64
2023/10/06 03:53:47;;;;;;;9.15;6.97;;;6.60;99.90;;;;;;4991650;28;20228;-63
2023/10/06 03:56:16;;;;;;;5.22;4.60;;;6.60;99.90;;;;;;4990713;28;20260;-63
2023/10/06 03:58:44;;;;;;;5.50;4.57;;;6.60;99.90;;;;;;4991353;28;20266;-64
2023/10/06 04:01:14;;;;;;;4.47;4.07;;;6.60;99.90;;;;;;4991983;28;20212;-63
2023/10/06 04:03:40;;;;;;;6.05;5.45;;;6.60;99.90;;;;;;4991420;28;20235;-63
2023/10/06 04:06:12;;;;;;;4.78;4.25;;;6.60;99.90;;;;;;4991720;28;20208;-63
2023/10/06 04:08:40;;;;;;;6.28;5.72;;;6.60;99.90;;;;;;5016899;23;20309;-64
2023/10/06 04:11:07;;;;;;;4.93;4.50;;;6.60;99.90;;;;;;5011277;28;20215;-64
2023/10/06 04:13:38;;;;;;;4.63;4.20;;;6.60;99.90;;;;;;5011029;28;20207;-64
2023/10/06 04:16:05;;;;;;;5.28;4.78;;;6.60;99.90;;;;;;5011342;28;20302;-65
2023/10/06 04:18:34;;;;;;;4.80;4.38;;;6.60;99.90;;;;;;5010997;28;20654;-64
2023/10/06 04:21:03;;;;;;;5.07;4.57;;;6.50;99.90;;;;;;5011094;28;20214;-64
2023/10/06 04:23:29;;;;;;;12.30;6.22;;;6.50;99.90;;;;;;5010657;28;20707;-64
2023/10/06 04:25:56;;;;;;;6.03;5.28;;;6.60;99.90;;;;;;5011189;28;20293;-64
2023/10/06 04:28:26;;;;;;;6.28;5.00;;;6.50;99.90;;;;;;5011157;28;20607;-65
2023/10/06 04:30:54;;;;;;;5.35;4.95;;;6.50;99.90;;;;;;5011149;28;20261;-64
2023/10/06 04:33:21;;;;;;;5.65;5.03;;;6.50;99.90;;;;;;5010822;28;20207;-65
2023/10/06 04:35:52;;;;;;;5.10;4.70;;;6.50;99.90;;;;;;5011238;28;20218;-64
2023/10/06 04:38:19;;;;;;;9.02;7.65;;;6.50;99.90;;;;;;5014173;28;20227;-64
2023/10/06 04:40:47;;;;;;;21.80;14.65;;;6.50;99.90;;;;;;5014659;28;20208;-65
2023/10/06 04:43:14;;;;;;;13.60;12.18;;;6.50;99.90;;;;;;5014559;28;20234;-64
2023/10/06 04:45:41;;;;;;;6.68;6.05;;;6.50;99.90;;;;;;5014929;28;20290;-64
2023/10/06 04:48:09;;;;;;;6.68;5.40;;;6.40;99.90;;;;;;5014218;28;20704;-64
2023/10/06 04:50:36;;;;;;;6.75;5.38;;;6.40;99.90;;;;;;5014280;28;20231;-65
2023/10/06 04:53:05;;;;;;;6.32;5.60;;;6.40;99.90;;;;;;5014403;28;20214;-65
2023/10/06 04:55:37;;;;;;;5.55;4.88;;;6.50;99.90;;;;;;5014023;28;20207;-64
2023/10/06 04:58:05;;;;;;;6.70;5.57;;;6.50;99.90;;;;;;5014252;28;20567;-64
2023/10/06 05:00:33;;;;;;;6.15;5.38;;;6.50;99.90;;;;;;5013850;28;20233;-65
2023/10/06 05:03:04;;;;;;;8.38;5.97;;;6.50;99.90;;;;;;5014131;28;20207;-64
2023/10/06 05:05:33;;;;;;;10.88;7.32;;;6.50;99.90;;;;;;5014029;28;20212;-65
2023/10/06 05:08:02;;;;;;;8.70;7.10;;;6.50;99.90;;;;;;5014026;28;20613;-65
2023/10/06 05:10:31;;;;;;;13.10;9.65;;;6.50;99.90;;;;;;5013634;28;20242;-66
2023/10/06 05:12:59;;;;;;;11.00;8.10;;;6.60;99.90;;;;;;5013576;28;20312;-64
2023/10/06 05:15:26;;;;;;;8.15;7.32;;;6.60;99.90;;;;;;5014219;28;20215;-65
2023/10/06 05:17:55;;;;;;;9.38;7.25;;;6.60;99.90;;;;;;5013928;28;20215;-65
2023/10/06 05:20:23;;;;;;;16.55;9.40;;;6.60;99.90;;;;;;5010981;28;20663;-65
2023/10/06 05:22:52;;;;;;;11.75;7.88;;;6.60;99.90;;;;;;5013716;28;20207;-65
2023/10/06 05:25:20;;;;;;;9.82;7.88;;;6.60;99.90;;;;;;5013573;28;20211;-65
2023/10/06 05:27:50;;;;;;;11.85;8.18;;;6.60;99.90;;;;;;5013680;28;20206;-65
2023/10/06 05:30:17;;;;;;;11.95;7.05;;;6.60;99.90;;;;;;5014010;28;20601;-64
2023/10/06 05:32:44;;;;;;;9.55;7.32;;;6.70;99.90;;;;;;5013645;28;20303;-64
2023/10/06 05:35:13;;;;;;;9.93;7.35;;;6.70;99.90;;;;;;5012998;28;20211;-64
2023/10/06 05:37:42;;;;;;;10.00;7.93;;;6.70;99.90;;;;;;4993769;28;20220;-64
2023/10/06 05:40:15;;;;;;;11.13;8.13;;;6.70;99.90;;;;;;5001360;28;20232;-64
2023/10/06 05:42:42;;;;;;;13.57;10.07;;;6.70;99.90;;;;;;4993919;28;20304;-64
2023/10/06 05:45:16;;;;;;;10.82;9.10;;;6.80;99.90;;;;;;4993730;28;20766;-63
2023/10/06 05:47:45;;;;;;;9.38;7.13;;;6.80;99.90;;;;;;4993401;28;20213;-64
2023/10/06 05:50:12;;;;;;;9.75;8.10;;;6.80;99.90;;;;;;4999007;28;20215;-64
2023/10/06 05:52:40;;;;;;;13.98;9.88;;;6.80;99.90;;;;;;5012891;28;20313;-64
2023/10/06 05:55:09;;;;;;;11.82;7.40;;;6.80;99.90;;;;;;5012837;28;20211;-64
2023/10/06 05:57:39;;;;;;;7.75;6.97;;;6.80;99.90;;;;;;5013041;28;20211;-64
2023/10/06 06:00:09;;;;;;;8.05;6.78;;;6.80;99.90;;;;;;5013018;28;20226;-64
2023/10/06 06:39:21;;;;;;;15.90;9.00;;;6.20;99.90;;;;;;5050810;27;20606;-62
2023/10/06 06:41:48;;;;;;;19.30;10.27;;;7.20;99.90;;;;;;5047966;28;20216;-62
2023/10/06 06:44:15;;;;;;;17.80;9.30;;;7.20;99.90;;;;;;5040058;28;20312;-64
2023/10/06 06:46:43;;;;;;;18.85;9.40;;;7.30;99.90;;;;;;5048515;28;20201;-65
2023/10/06 06:49:09;;;;;;;15.60;9.43;;;7.30;99.90;;;;;;5048206;28;20225;-64
2023/10/06 06:51:37;;;;;;;12.98;9.40;;;7.30;99.90;;;;;;5048641;28;20216;-65
2023/10/06 06:54:05;;;;;;;14.80;8.73;;;7.30;99.90;;;;;;5048482;28;20601;-64
2023/10/06 06:56:33;;;;;;;11.27;8.70;;;7.40;99.90;;;;;;5048549;28;20212;-64
2023/10/06 06:59:00;;;;;;;10.98;8.65;;;7.50;99.90;;;;;;5047976;28;20712;-64
2023/10/06 07:01:27;;;;;;;15.23;10.20;;;7.50;99.90;;;;;;5048141;28;20207;-64
2023/10/06 07:03:54;;;;;;;10.23;8.18;;;7.50;99.90;;;;;;5048008;28;20213;-65
2023/10/06 07:06:21;;;;;;;10.25;8.70;;;7.50;99.90;;;;;;5048175;28;20243;-64
2023/10/06 07:08:48;;;;;;;10.52;9.45;;;7.60;99.90;;;;;;5046872;28;20224;-64
2023/10/06 07:11:15;;;;;;;12.27;11.07;;;7.60;99.90;;;;;;5036742;28;20296;-64
2023/10/06 07:13:45;;;;;;;8.02;6.57;;;7.70;99.90;;;;;;5035671;28;20211;-64
2023/10/06 07:16:12;;;;;;;9.10;6.75;;;7.70;99.90;;;;;;5028083;28;20216;-64
2023/10/06 07:18:39;;;;;;;7.80;7.07;;;7.80;99.90;;;;;;5027437;28;20729;-65
2023/10/06 07:21:10;;;;;;;9.52;8.60;;;7.90;99.90;;;;;;5028117;28;20266;-64
2023/10/06 07:23:37;;;;;;;7.60;6.80;;;7.90;99.90;;;;;;5027637;28;20274;-65
2023/10/06 07:26:10;;;;;;;8.10;7.30;;;7.90;99.90;;;;;;5027766;28;20211;-64
2023/10/06 07:28:37;;;;;;;7.72;6.93;;;8.00;99.90;;;;;;5027442;28;20878;-64
2023/10/06 07:31:12;;;;;;;7.40;6.57;;;8.00;99.90;;;;;;5027627;28;20220;-64
2023/10/06 07:33:39;;;;;;;7.45;6.75;;;8.10;99.90;;;;;;5027735;28;20586;-64
2023/10/06 07:36:14;;;;;;;6.00;5.35;;;8.10;99.90;;;;;;5027724;28;20208;-64
2023/10/06 07:38:41;;;;;;;7.72;6.63;;;8.10;99.90;;;;;;5022673;28;20232;-64
2023/10/06 07:41:09;;;;;;;5.75;5.25;;;8.20;99.90;;;;;;5014130;28;20585;-64
2023/10/06 07:43:37;;;;;;;7.33;6.60;;;8.20;99.90;;;;;;5014442;28;20210;-65
2023/10/06 07:46:07;;;;;;;8.07;6.82;;;8.30;99.90;;;;;;5014348;28;20465;-64
2023/10/06 07:48:37;;;;;;;7.97;7.05;;;8.30;99.90;;;;;;5013891;28;20224;-64
2023/10/06 07:51:06;;;;;;;11.25;8.32;;;8.40;99.90;;;;;;5014164;28;20209;-64
2023/10/06 07:53:35;;;;;;;8.27;7.40;;;8.40;99.90;;;;;;5013914;28;20301;-64
2023/10/06 07:56:07;;;;;;;8.25;7.45;;;8.50;99.90;;;;;;5014205;28;20451;-64
2023/10/06 07:58:34;;;;;;;8.20;7.38;;;8.60;99.90;;;;;;5012247;28;20229;-65
2023/10/06 08:01:02;;;;;;;8.07;7.37;;;8.60;99.90;;;;;;5012469;28;20206;-65
2023/10/06 08:03:29;;;;;;;7.80;7.00;;;8.70;99.90;;;;;;5013149;28;20460;-65
2023/10/06 08:06:01;;;;;;;8.53;7.63;;;8.70;99.90;;;;;;5012977;28;20456;-65
2023/10/06 08:08:29;;;;;;;8.35;7.45;;;8.80;99.90;;;;;;5016288;28;20848;-65
2023/10/06 08:10:56;;;;;;;11.30;8.43;;;8.90;99.90;;;;;;5029468;28;20690;-65
2023/10/06 08:13:24;;;;;;;8.77;7.87;;;9.00;99.90;;;;;;5024295;28;21010;-65
2023/10/06 08:15:51;;;;;;;8.53;7.73;;;9.10;99.90;;;;;;5032355;28;20446;-65
2023/10/06 08:18:18;;;;;;;9.17;8.20;;;9.20;99.90;;;;;;5032303;28;20491;-64
2023/10/06 08:20:46;;;;;;;8.30;7.50;;;9.20;99.90;;;;;;5032056;28;20829;-65
2023/10/06 08:23:15;;;;;;;9.63;7.43;;;9.40;99.90;;;;;;5032650;28;20977;-65
2023/10/06 08:25:42;;;;;;;9.33;7.90;;;9.50;99.90;;;;;;5033095;28;20965;-64
2023/10/06 08:28:09;;;;;;;8.57;7.17;;;9.60;99.90;;;;;;5032328;28;20879;-64
2023/10/06 08:30:37;;;;;;;9.30;8.10;;;9.70;99.90;;;;;;5032726;28;20530;-64
2023/10/06 08:33:08;;;;;;;11.50;8.87;;;9.80;99.90;;;;;;5032381;28;20458;-64
2023/10/06 08:35:36;;;;;;;12.00;7.10;;;9.90;99.90;;;;;;5033046;28;20538;-64
2023/10/06 08:38:07;;;;;;;9.70;7.50;;;10.00;99.90;;;;;;5032179;28;20491;-64
2023/10/06 08:40:37;;;;;;;10.97;9.30;;;10.10;99.90;;;;;;5032864;28;20456;-64
2023/10/06 08:43:07;;;;;;;12.60;8.83;;;10.30;99.90;;;;;;5032900;28;20877;-64
2023/10/06 08:45:40;;;;;;;14.00;9.03;;;10.40;99.90;;;;;;5032796;28;20452;-64
2023/10/06 08:48:10;;;;;;;10.07;8.77;;;10.60;99.90;;;;;;5032496;28;20813;-64
2023/10/06 08:50:38;;;;;;;9.87;8.87;;;10.60;99.90;;;;;;5031710;28;20551;-64
2023/10/06 08:53:09;;;;;;;13.03;10.13;;;10.80;99.90;;;;;;5031993;28;20452;-65
2023/10/06 08:55:38;;;;;;;12.97;10.10;;;10.90;99.90;;;;;;5014165;28;20446;-65
2023/10/06 08:58:07;;;;;;;16.70;11.20;;;11.10;99.90;;;;;;5021133;28;20493;-63
2023/10/06 09:00:36;;;;;;;10.00;8.90;;;11.30;99.90;;;;;;5027875;28;20524;-63
2023/10/06 09:03:08;;;;;;;11.53;10.23;;;11.40;99.90;;;;;;5020891;28;20458;-62
2023/10/06 09:05:36;;;;;;;12.20;9.47;;;11.60;99.90;;;;;;5023137;28;20454;-63
2023/10/06 09:08:06;;;;;;;10.77;9.60;;;11.80;99.90;;;;;;5019014;28;20511;-62
2023/10/06 09:10:34;;;;;;;11.80;10.60;;;12.00;99.90;;;;;;5027134;28;20508;-63
2023/10/06 09:13:05;;;;;;;12.23;11.03;;;12.20;99.90;;;;;;5020587;28;20903;-62
2023/10/06 09:15:35;;;;;;;12.47;9.63;;;12.30;99.90;;;;;;5019623;28;20446;-63
2023/10/06 09:18:02;;;;;;;11.20;10.20;;;12.50;99.90;;;;;;5027853;28;20477;-63
2023/10/06 09:20:31;;;;;;;15.73;12.27;;;12.70;99.90;;;;;;5015814;28;20464;-63
2023/10/06 09:22:59;;;;;;;13.87;10.83;;;12.80;99.90;;;;;;5023537;28;20446;-63
2023/10/06 09:25:27;;;;;;;15.20;10.87;;;13.00;99.90;;;;;;5023394;28;20955;-63
2023/10/06 09:28:08;;;;;;;11.80;10.60;;;13.20;99.90;;;;;;5015546;28;20469;-63
2023/10/06 09:30:49;;;;;;;14.47;9.53;;;13.40;99.90;;;;;;5016471;28;20443;-63
2023/10/06 09:33:17;;;;;;;12.57;10.10;;;;;;;;;;5020806;28;20502;-63
2023/10/06 09:35:44;;;;;;;10.67;9.70;;;13.70;99.90;;;;;;5025617;28;20633;-63
2023/10/06 09:38:13;;;;;;;14.27;10.40;;;13.80;99.90;;;;;;5014273;28;20492;-62
2023/10/06 09:40:44;;;;;;;10.77;9.37;;;14.00;99.90;;;;;;5025910;28;21070;-62
2023/10/06 09:43:15;;;;;;;13.77;10.57;;;14.20;99.90;;;;;;5021029;28;20524;-63
2023/10/06 09:45:43;;;;;;;12.73;11.40;;;14.30;99.90;;;;;;5017276;28;20454;-63
2023/10/06 09:48:17;;;;;;;11.30;9.97;;;14.50;99.90;;;;;;5027109;28;21013;-63
2023/10/06 09:50:45;;;;;;;13.00;9.77;;;14.70;99.90;;;;;;5017340;28;20499;-62
2023/10/06 09:53:16;;;;;;;14.07;8.17;;;14.80;99.90;;;;;;5021240;28;20877;-63
2023/10/06 09:55:44;;;;;;;9.30;8.40;;;15.00;99.90;;;;;;5025262;28;20496;-63
2023/10/06 09:58:13;;;;;;;7.93;7.03;;;15.20;99.90;;;;;;5014138;28;20578;-63
2023/10/06 10:00:40;;;;;;;10.87;8.47;;;15.30;99.90;;;;;;5025291;28;20840;-63
2023/10/06 10:03:12;;;;;;;9.20;8.23;;;15.50;99.90;;;;;;5020043;28;20461;-63
2023/10/06 10:05:40;;;;;;;11.77;8.67;;;15.70;99.90;;;;;;5017495;28;20453;-63
2023/10/06 10:08:07;;;;;;;10.80;6.77;;;15.80;99.90;;;;;;5026660;28;21234;-63
2023/10/06 10:10:37;;;;;;;11.57;6.90;;;15.90;99.90;;;;;;5015475;28;20439;-63
2023/10/06 10:13:31;;;;;;;11.60;9.00;;;16.10;99.90;;;;;;5021768;28;21257;-63
2023/10/06 10:16:11;;;;;;;8.70;6.47;;;16.10;99.90;;;;;;5024255;28;20453;-63
2023/10/06 10:18:39;;;;;;;10.70;7.30;;;16.20;99.90;;;;;;5015628;28;20487;-63
2023/10/06 10:21:11;;;;;;;13.80;8.13;;;16.40;99.90;;;;;;5021201;28;20453;-62
2023/10/06 10:23:39;;;;;;;11.27;7.43;;;16.40;99.90;;;;;;5023874;28;20458;-63
2023/10/06 10:26:18;;;;;;;7.07;6.40;;;16.50;99.90;;;;;;5014273;28;20872;-63
2023/10/06 10:29:24;;;;;;;9.80;6.93;;;16.60;99.90;;;;;;5024043;28;20494;-63
2023/10/06 10:31:56;;;;;;;9.97;7.40;;;16.70;99.90;;;;;;5024182;28;20455;-63
2023/10/06 10:34:25;;;;;;;9.50;6.17;;;16.80;99.90;;;;;;5013840;28;20824;-63
2023/10/06 10:37:15;;;;;;;10.87;6.93;;;16.90;99.90;;;;;;5023138;28;20453;-63
2023/10/06 10:39:47;;;;;;;7.43;5.93;;;17.00;99.90;;;;;;5023891;28;20519;-63
2023/10/06 10:42:17;;;;;;;7.50;5.97;;;17.10;99.90;;;;;;5013707;28;20450;-63
2023/10/06 10:44:47;;;;;;;7.00;6.10;;;17.10;99.90;;;;;;5024520;28;20448;-63
2023/10/06 10:47:15;;;;;;;8.43;5.57;;;17.20;99.90;;;;;;5020152;28;20448;-63
2023/10/06 10:49:44;;;;;;;5.87;5.37;;;17.30;99.90;;;;;;5016188;28;20469;-63
2023/10/06 10:52:11;;;;;;;10.10;5.87;;;17.30;99.90;;;;;;5026694;28;20502;-63
2023/10/06 10:54:40;;;;;;;5.73;4.90;;;17.40;99.90;;;;;;5015690;28;20523;-63
2023/10/06 10:57:11;;;;;;;10.00;7.53;;;17.40;99.90;;;;;;5020900;28;20449;-64
2023/10/06 11:00:14;;;;;;;10.17;5.53;;;17.30;99.90;;;;;;5023255;28;20491;-63
2023/10/06 11:02:42;;;;;;;5.97;5.37;;;17.40;99.90;;;;;;5015964;28;20445;-63
2023/10/06 11:05:09;;;;;;;6.93;5.73;;;17.40;99.90;;;;;;5020588;28;20528;-63
2023/10/06 11:07:36;;;;;;;7.40;5.80;;;17.50;99.90;;;;;;5023366;28;20536;-63
2023/10/06 11:10:04;;;;;;;6.70;5.67;;;17.60;99.90;;;;;;5013867;28;20568;-63
2023/10/06 11:12:31;;;;;;;5.97;4.90;;;17.80;99.90;;;;;;5025941;28;20450;-63
2023/10/06 11:15:13;;;;;;;10.60;5.87;;;17.90;99.90;;;;;;5020896;28;20455;-63
2023/10/06 11:17:43;;;;;;;7.83;5.40;;;18.00;99.90;;;;;;5019607;28;20473;-63
2023/10/06 11:20:15;;;;;;;8.30;4.90;;;18.10;99.90;;;;;;5030052;28;20441;-63
2023/10/06 11:22:54;;;;;;;6.10;5.50;;;18.30;99.90;;;;;;5016258;28;20441;-63
2023/10/06 11:25:26;;;;;;;7.93;5.67;;;18.40;99.90;;;;;;5024875;28;20448;-63
2023/10/06 11:27:58;;;;;;;7.97;4.97;;;18.50;99.90;;;;;;5017668;28;20549;-63
2023/10/06 11:30:28;;;;;;;7.60;5.30;;;18.70;99.90;;;;;;5017002;28;20439;-63
2023/10/06 11:32:58;;;;;;;6.97;4.90;;;18.80;99.90;;;;;;5025737;28;20442;-63
2023/10/06 11:35:25;;;;;;;10.30;5.50;;;19.00;99.90;;;;;;5025108;28;20441;-63
2023/10/06 11:37:52;;;;;;;12.30;5.20;;;19.10;99.90;;;;;;5017379;28;21060;-63
2023/10/06 11:40:21;;;;;;;6.83;4.70;;;19.20;99.90;;;;;;5029825;28;20956;-63
2023/10/06 11:42:48;;;;;;;5.83;3.63;;;19.20;99.90;;;;;;5019651;28;20446;-63
2023/10/06 11:45:24;;;;;;;6.60;4.87;;;19.40;99.90;;;;;;5022985;28;20442;-63
2023/10/06 11:47:52;;;;;;;6.83;3.97;;;19.50;98.60;;;;;;5028426;28;20461;-63
2023/10/06 11:50:25;;;;;;;4.77;4.03;;;19.60;98.70;;;;;;5016803;28;20483;-63
2023/10/06 11:52:51;;;;;;;6.80;5.17;;;19.60;97.90;;;;;;5025774;28;20533;-63
2023/10/06 11:55:26;;;;;;;5.37;3.60;;;19.70;97.70;;;;;;5023741;28;20528;-63
2023/10/06 11:57:54;;;;;;;7.10;4.10;;;19.80;97.00;;;;;;5017253;28;20536;-63
2023/10/06 12:00:38;;;;;;;5.47;4.70;;;19.90;96.00;;;;;;5029513;28;20525;-63
2023/10/06 12:03:06;;;;;;;5.23;3.90;;;20.00;96.90;;;;;;5021930;28;20883;-63
2023/10/06 12:05:35;;;;;;;4.80;4.40;;;20.20;96.70;;;;;;5019800;28;20447;-64
2023/10/06 12:08:04;;;;;;;4.37;3.43;;;20.30;95.50;;;;;;5028783;28;20495;-63
2023/10/06 12:10:32;;;;;;;4.73;3.10;;;20.60;95.90;;;;;;5016623;28;20487;-63
2023/10/06 12:13:00;;;;;;;4.17;3.77;;;20.70;94.40;;;;;;5024424;28;20475;-63
2023/10/06 12:15:30;;;;;;;6.30;4.00;;;20.70;93.00;;;;;;5024447;28;20981;-63
2023/10/06 12:17:57;;;;;;;4.73;4.33;;;20.80;93.50;;;;;;5016025;28;20475;-63
2023/10/06 12:20:24;;;;;;;3.50;3.20;;;20.90;93.10;;;;;;5028555;28;20440;-63
2023/10/06 12:22:53;;;;;;;4.30;3.90;;;21.00;92.20;;;;;;5019397;28;20453;-63
2023/10/06 12:25:23;;;;;;;4.83;3.70;;;21.00;92.20;;;;;;5021260;28;20445;-63
2023/10/06 12:27:50;;;;;;;4.37;3.20;;;21.20;91.40;;;;;;5026756;28;20989;-63
2023/10/06 12:30:18;;;;;;;4.37;3.20;;;21.10;88.40;;;;;;5015583;28;20578;-63
2023/10/06 12:32:47;;;;;;;4.30;3.40;;;21.30;90.90;;;;;;5025558;28;20455;-64
2023/10/06 12:35:18;;;;;;;4.13;3.73;;;21.50;91.50;;;;;;5022414;28;20452;-63
2023/10/06 12:37:45;;;;;;;5.27;3.47;;;21.60;91.30;;;;;;5017464;28;20462;-63
2023/10/06 12:40:15;;;;;;;6.40;3.90;;;21.70;88.30;;;;;;5027941;28;20848;-63
2023/10/06 12:42:43;;;;;;;5.20;3.63;;;21.70;89.40;;;;;;5017721;28;20519;-63
2023/10/06 12:45:17;;;;;;;6.43;4.30;;;21.80;89.60;;;;;;5022108;28;20971;-63
2023/10/06 12:47:45;;;;;;;5.13;3.77;;;22.00;89.20;;;;;;5026129;28;20825;-63
2023/10/06 12:50:16;;;;;;;5.37;3.50;;;22.00;87.90;;;;;;5014965;28;20486;-63
2023/10/06 12:52:44;;;;;;;6.47;3.60;;;22.00;88.90;;;;;;5015314;28;20529;-63
2023/10/06 12:55:12;;;;;;;5.50;3.70;;;22.10;88.80;;;;;;5021198;28;20541;-63
2023/10/06 12:57:41;;;;;;;3.40;3.10;;;22.10;89.10;;;;;;5017524;28;20453;-63
2023/10/06 13:00:09;;;;;;;4.57;3.93;;;22.20;87.80;;;;;;5027829;28;20447;-63
2023/10/06 13:02:36;;;;;;;5.37;3.10;;;22.30;86.50;;;;;;5016627;28;20456;-63
2023/10/06 13:05:07;;;;;;;5.53;3.80;;;22.50;88.70;;;;;;5023054;28;20525;-63
2023/10/06 13:07:34;;;;;;;4.30;3.83;;;22.60;84.90;;;;;;5024129;28;20449;-63
2023/10/06 13:10:05;;;;;;;5.80;4.23;;;22.60;86.00;;;;;;5014969;28;20938;-63
2023/10/06 13:12:33;;;;;;;4.27;3.60;;;22.60;85.30;;;;;;5026245;28;20516;-63
2023/10/06 13:15:02;;;;;;;4.43;4.07;;;22.70;87.70;;;;;;5019713;28;20445;-63
2023/10/06 13:17:29;;;;;;;4.30;3.90;;;22.90;89.80;;;;;;5018761;28;20451;-63
2023/10/06 13:19:56;;;;;;;6.13;3.87;;;23.20;90.00;;;;;;5026965;28;20455;-63
2023/10/06 13:22:27;;;;;;;4.80;4.40;;;23.40;86.90;;;;;;5014807;28;20877;-64
2023/10/06 13:24:54;;;;;;;5.47;4.30;;;23.70;86.10;;;;;;5023763;28;20446;-63
2023/10/06 13:27:23;;;;;;;4.10;3.57;;;23.90;84.00;;;;;;5022307;28;20643;-64
2023/10/06 13:29:51;;;;;;;4.67;4.00;;;24.00;81.20;;;;;;5015686;28;20529;-63
2023/10/06 13:32:19;;;;;;;5.27;4.00;;;24.20;82.50;;;;;;5027490;28;20443;-63
2023/10/06 13:34:46;;;;;;;6.77;4.30;;;24.30;80.20;;;;;;5017600;28;20451;-63
2023/10/06 13:37:14;;;;;;;4.47;3.90;;;24.50;79.60;;;;;;5019555;28;20451;-63
2023/10/06 13:39:40;;;;;;;7.83;4.30;;;24.70;77.70;;;;;;5024683;28;20463;-64
2023/10/06 13:42:11;;;;;;;8.90;4.43;;;24.80;75.30;;;;;;5014398;28;20535;-63